No particular awareness of the weather is required.    There are no Weather-warnings


Meteo18 Weather Cam more information Meteo18 Weather Cam


Thunder radar more information blitzortung!


Rain radar more information rain snow radar


Visit our other weather sites:

Template documentation
and downloads

And another site



Weather Underground History page Text

Daily Summary for May 1, 2017 Units:  Both    English   Metric
« Previous Day
Next Day »
Daily Weekly Monthly Yearly Custom
  High: Low: Average:
Temperature: 55.2 °F /  12.9 °C 43.3 °F /  6.3 °C 48.4 °F /  9.1 °C
Dew Point: 44.2 °F /  6.8 °C 37.9 °F /  3.3 °C 41.5 °F /  5.3 °C
Humidity: 93 % 53 % 78 %
Wind Speed: 19 mph /  30.6 km/h - 6.8 mph /  11 km/h
Wind Gust: 25 mph /  40.2 km/h - -
Wind:- - SW
Pressure: 30 in /  1016.8 hPa 29.7 in /  1007.0 hPa -
Precipitation: 0.02 in /  0.5 mm    
Historical Graphs
 
 
Tabular Data for May 1, 2017
Time Temperature Dew Point Pressure Wind Wind Speed Wind Gust Humidity Rainfall Rate (Hourly)
00:02 44.8 °F /  7.1 °C 42.3 °F /  5.7 °C 29.8 in /  1007.7 hPa SW 6 mph /  9.7 km/h 13 mph /  20.9 km/h 91 % 0 in /  0.0 mm
00:12 44.6 °F /  7.0 °C 41.9 °F /  5.5 °C 29.7 in /  1007.0 hPa SW 5 mph /  8.0 km/h 16 mph /  25.7 km/h 90 % 0 in /  0.0 mm
00:22 44.4 °F /  6.9 °C 41.9 °F /  5.5 °C 29.7 in /  1007.3 hPa SSW 6 mph /  9.7 km/h 16 mph /  25.7 km/h 91 % 0 in /  0.0 mm
00:32 44.2 °F /  6.8 °C 41.5 °F /  5.3 °C 29.7 in /  1007.3 hPa South 7 mph /  11.3 km/h 14 mph /  22.5 km/h 90 % 0 in /  0.0 mm
00:37 44.2 °F /  6.8 °C 41.5 °F /  5.3 °C 29.7 in /  1007.3 hPa South 4 mph /  6.4 km/h 13 mph /  20.9 km/h 90 % 0 in /  0.0 mm
00:42 44.2 °F /  6.8 °C 41.7 °F /  5.4 °C 29.7 in /  1007.3 hPa SSW 3 mph /  4.8 km/h 13 mph /  20.9 km/h 91 % 0 in /  0.0 mm
00:52 44.1 °F /  6.7 °C 41.5 °F /  5.3 °C 29.7 in /  1007.3 hPa South 8 mph /  12.9 km/h 15 mph /  24.1 km/h 91 % 0 in /  0.0 mm
01:02 44.1 °F /  6.7 °C 41.5 °F /  5.3 °C 29.7 in /  1007.3 hPa South 6 mph /  9.7 km/h 15 mph /  24.1 km/h 91 % 0 in /  0.0 mm
01:12 43.9 °F /  6.6 °C 41.4 °F /  5.2 °C 29.7 in /  1007.3 hPa SSW 9 mph /  14.5 km/h 14 mph /  22.5 km/h 91 % 0 in /  0.0 mm
01:17 43.9 °F /  6.6 °C 41.4 °F /  5.2 °C 29.8 in /  1007.7 hPa SSE 4 mph /  6.4 km/h 14 mph /  22.5 km/h 91 % 0 in /  0.0 mm
01:22 43.9 °F /  6.6 °C 41.4 °F /  5.2 °C 29.8 in /  1007.7 hPa SSW 8 mph /  12.9 km/h 13 mph /  20.9 km/h 91 % 0 in /  0.0 mm
01:32 43.9 °F /  6.6 °C 41.2 °F /  5.1 °C 29.8 in /  1007.7 hPa SSW 6 mph /  9.7 km/h 13 mph /  20.9 km/h 90 % 0 in /  0.0 mm
01:42 43.9 °F /  6.6 °C 41.4 °F /  5.2 °C 29.8 in /  1007.7 hPa SSW 4 mph /  6.4 km/h 15 mph /  24.1 km/h 91 % 0 in /  0.0 mm
01:52 43.9 °F /  6.6 °C 41.2 °F /  5.1 °C 29.8 in /  1008.0 hPa South 10 mph /  16.1 km/h 14 mph /  22.5 km/h 90 % 0 in /  0.0 mm
01:57 43.9 °F /  6.6 °C 41.2 °F /  5.1 °C 29.8 in /  1008.0 hPa SSW 6 mph /  9.7 km/h 14 mph /  22.5 km/h 90 % 0 in /  0.0 mm
02:02 43.9 °F /  6.6 °C 41.2 °F /  5.1 °C 29.8 in /  1007.7 hPa SW 3 mph /  4.8 km/h 14 mph /  22.5 km/h 90 % 0 in /  0.0 mm
02:07 43.9 °F /  6.6 °C 41.2 °F /  5.1 °C 29.8 in /  1007.7 hPa South 7 mph /  11.3 km/h 14 mph /  22.5 km/h 90 % 0 in /  0.0 mm
02:12 43.7 °F /  6.5 °C 41 °F /  5.0 °C 29.8 in /  1008.0 hPa SSW 5 mph /  8.0 km/h 14 mph /  22.5 km/h 90 % 0 in /  0.0 mm
02:17 43.7 °F /  6.5 °C 41 °F /  5.0 °C 29.8 in /  1008.0 hPa South 6 mph /  9.7 km/h 12 mph /  19.3 km/h 90 % 0 in /  0.0 mm
02:22 43.9 °F /  6.6 °C 41.2 °F /  5.1 °C 29.8 in /  1008.0 hPa SSE 4 mph /  6.4 km/h 12 mph /  19.3 km/h 90 % 0 in /  0.0 mm
02:27 43.7 °F /  6.5 °C 41 °F /  5.0 °C 29.8 in /  1008.0 hPa SW 6 mph /  9.7 km/h 10 mph /  16.1 km/h 90 % 0 in /  0.0 mm
02:32 43.9 °F /  6.6 °C 41.2 °F /  5.1 °C 29.8 in /  1008.4 hPa SW 5 mph /  8.0 km/h 10 mph /  16.1 km/h 90 % 0 in /  0.0 mm
02:42 43.9 °F /  6.6 °C 41.2 °F /  5.1 °C 29.8 in /  1008.0 hPa SE 6 mph /  9.7 km/h 12 mph /  19.3 km/h 90 % 0 in /  0.0 mm
02:47 44.1 °F /  6.7 °C 41.4 °F /  5.2 °C 29.8 in /  1008.4 hPa SW 8 mph /  12.9 km/h 13 mph /  20.9 km/h 90 % 0 in /  0.0 mm
02:52 44.1 °F /  6.7 °C 41.4 °F /  5.2 °C 29.8 in /  1008.4 hPa South 8 mph /  12.9 km/h 13 mph /  20.9 km/h 90 % 0 in /  0.0 mm
03:02 44.2 °F /  6.8 °C 41.5 °F /  5.3 °C 29.8 in /  1008.4 hPa SW 15 mph /  24.1 km/h 15 mph /  24.1 km/h 90 % 0 in /  0.0 mm
03:07 44.2 °F /  6.8 °C 41.5 °F /  5.3 °C 29.8 in /  1008.4 hPa SSW 6 mph /  9.7 km/h 15 mph /  24.1 km/h 90 % 0 in /  0.0 mm
03:12 44.1 °F /  6.7 °C 41.4 °F /  5.2 °C 29.8 in /  1008.4 hPa SSW 12 mph /  19.3 km/h 15 mph /  24.1 km/h 90 % 0 in /  0.0 mm
03:17 44.1 °F /  6.7 °C 41.4 °F /  5.2 °C 29.8 in /  1008.7 hPa SSW 7 mph /  11.3 km/h 15 mph /  24.1 km/h 90 % 0 in /  0.0 mm
03:22 44.1 °F /  6.7 °C 41.4 °F /  5.2 °C 29.8 in /  1008.7 hPa SSW 7 mph /  11.3 km/h 13 mph /  20.9 km/h 90 % 0 in /  0.0 mm
03:27 44.1 °F /  6.7 °C 41.5 °F /  5.3 °C 29.8 in /  1008.7 hPa South 5 mph /  8.0 km/h 13 mph /  20.9 km/h 91 % 0 in /  0.0 mm
03:32 44.1 °F /  6.7 °C 41.5 °F /  5.3 °C 29.8 in /  1008.7 hPa SW 9 mph /  14.5 km/h 12 mph /  19.3 km/h 91 % 0 in /  0.0 mm
03:37 44.1 °F /  6.7 °C 41.5 °F /  5.3 °C 29.8 in /  1008.7 hPa SE 6 mph /  9.7 km/h 13 mph /  20.9 km/h 91 % 0 in /  0.0 mm
03:42 44.1 °F /  6.7 °C 41.5 °F /  5.3 °C 29.8 in /  1008.7 hPa SSW 6 mph /  9.7 km/h 13 mph /  20.9 km/h 91 % 0 in /  0.0 mm
03:47 44.1 °F /  6.7 °C 41.5 °F /  5.3 °C 29.8 in /  1009.0 hPa SSW 5 mph /  8.0 km/h 13 mph /  20.9 km/h 91 % 0 in /  0.0 mm
03:52 43.9 °F /  6.6 °C 41.4 °F /  5.2 °C 29.8 in /  1009.0 hPa SSW 8 mph /  12.9 km/h 13 mph /  20.9 km/h 91 % 0 in /  0.0 mm
03:57 43.9 °F /  6.6 °C 41.2 °F /  5.1 °C 29.8 in /  1009.0 hPa SSW 7 mph /  11.3 km/h 14 mph /  22.5 km/h 90 % 0 in /  0.0 mm
04:02 44.1 °F /  6.7 °C 41.4 °F /  5.2 °C 29.8 in /  1009.0 hPa SW 8 mph /  12.9 km/h 15 mph /  24.1 km/h 90 % 0 in /  0.0 mm
04:12 43.9 °F /  6.6 °C 40.8 °F /  4.9 °C 29.8 in /  1009.4 hPa SSW 8 mph /  12.9 km/h 15 mph /  24.1 km/h 89 % 0 in /  0.0 mm
04:17 43.9 °F /  6.6 °C 40.8 °F /  4.9 °C 29.8 in /  1009.4 hPa WSW 5 mph /  8.0 km/h 13 mph /  20.9 km/h 89 % 0 in /  0.0 mm
04:22 43.9 °F /  6.6 °C 40.8 °F /  4.9 °C 29.8 in /  1009.4 hPa SW 6 mph /  9.7 km/h 13 mph /  20.9 km/h 89 % 0 in /  0.0 mm
04:27 43.9 °F /  6.6 °C 40.8 °F /  4.9 °C 29.8 in /  1009.4 hPa SSW 6 mph /  9.7 km/h 12 mph /  19.3 km/h 89 % 0 in /  0.0 mm
04:37 43.9 °F /  6.6 °C 40.8 °F /  4.9 °C 29.8 in /  1009.4 hPa SW 5 mph /  8.0 km/h 13 mph /  20.9 km/h 89 % 0 in /  0.0 mm
04:42 43.9 °F /  6.6 °C 40.8 °F /  4.9 °C 29.8 in /  1009.4 hPa SSE 8 mph /  12.9 km/h 16 mph /  25.7 km/h 89 % 0 in /  0.0 mm
04:47 43.9 °F /  6.6 °C 40.8 °F /  4.9 °C 29.8 in /  1009.4 hPa WSW 10 mph /  16.1 km/h 16 mph /  25.7 km/h 89 % 0 in /  0.0 mm
04:52 43.9 °F /  6.6 °C 40.8 °F /  4.9 °C 29.8 in /  1009.7 hPa SW 8 mph /  12.9 km/h 16 mph /  25.7 km/h 89 % 0 in /  0.0 mm
04:57 43.9 °F /  6.6 °C 41.2 °F /  5.1 °C 29.8 in /  1009.7 hPa SW 10 mph /  16.1 km/h 14 mph /  22.5 km/h 90 % 0 in /  0.0 mm
05:02 43.9 °F /  6.6 °C 41.2 °F /  5.1 °C 29.8 in /  1009.7 hPa SW 12 mph /  19.3 km/h 14 mph /  22.5 km/h 90 % 0 in /  0.0 mm
05:07 43.9 °F /  6.6 °C 41.2 °F /  5.1 °C 29.8 in /  1010.0 hPa SW 8 mph /  12.9 km/h 14 mph /  22.5 km/h 90 % 0 in /  0.0 mm
05:12 43.9 °F /  6.6 °C 41.4 °F /  5.2 °C 29.8 in /  1010.0 hPa SW 5 mph /  8.0 km/h 14 mph /  22.5 km/h 91 % 0 in /  0.0 mm
05:17 43.9 °F /  6.6 °C 41.4 °F /  5.2 °C 29.8 in /  1010.0 hPa WSW 8 mph /  12.9 km/h 15 mph /  24.1 km/h 91 % 0 in /  0.0 mm
05:22 44.1 °F /  6.7 °C 41.4 °F /  5.2 °C 29.8 in /  1010.0 hPa SW 6 mph /  9.7 km/h 15 mph /  24.1 km/h 90 % 0 in /  0.0 mm
05:27 43.9 °F /  6.6 °C 41.2 °F /  5.1 °C 29.8 in /  1010.0 hPa WSW 7 mph /  11.3 km/h 15 mph /  24.1 km/h 90 % 0 in /  0.0 mm
05:32 43.9 °F /  6.6 °C 41.2 °F /  5.1 °C 29.8 in /  1010.4 hPa West 9 mph /  14.5 km/h 15 mph /  24.1 km/h 90 % 0 in /  0.0 mm
05:37 43.7 °F /  6.5 °C 41.2 °F /  5.1 °C 29.8 in /  1010.4 hPa SSW 6 mph /  9.7 km/h 14 mph /  22.5 km/h 91 % 0 in /  0.0 mm
05:42 43.5 °F /  6.4 °C 41 °F /  5.0 °C 29.8 in /  1010.4 hPa SW 10 mph /  16.1 km/h 14 mph /  22.5 km/h 91 % 0 in /  0.0 mm
05:47 43.5 °F /  6.4 °C 41 °F /  5.0 °C 29.8 in /  1010.4 hPa SW 6 mph /  9.7 km/h 16 mph /  25.7 km/h 91 % 0 in /  0.0 mm
05:57 43.5 °F /  6.4 °C 41.4 °F /  5.2 °C 29.8 in /  1010.4 hPa SW 5 mph /  8.0 km/h 14 mph /  22.5 km/h 92 % 0 in /  0.0 mm
06:02 43.3 °F /  6.3 °C 41.2 °F /  5.1 °C 29.8 in /  1010.7 hPa SW 6 mph /  9.7 km/h 14 mph /  22.5 km/h 92 % 0 in /  0.0 mm
06:07 43.5 °F /  6.4 °C 41.4 °F /  5.2 °C 29.8 in /  1010.7 hPa SW 9 mph /  14.5 km/h 15 mph /  24.1 km/h 92 % 0 in /  0.0 mm
06:12 43.5 °F /  6.4 °C 41.4 °F /  5.2 °C 29.9 in /  1011.1 hPa SW 6 mph /  9.7 km/h 15 mph /  24.1 km/h 92 % 0 in /  0.0 mm
06:17 43.5 °F /  6.4 °C 41.4 °F /  5.2 °C 29.9 in /  1011.1 hPa WSW 7 mph /  11.3 km/h 14 mph /  22.5 km/h 92 % 0 in /  0.0 mm
06:22 43.5 °F /  6.4 °C 41.4 °F /  5.2 °C 29.9 in /  1011.1 hPa SW 8 mph /  12.9 km/h 14 mph /  22.5 km/h 92 % 0 in /  0.0 mm
06:27 43.5 °F /  6.4 °C 41.7 °F /  5.4 °C 29.9 in /  1011.1 hPa SSW 5 mph /  8.0 km/h 14 mph /  22.5 km/h 93 % 0 in /  0.0 mm
06:32 43.7 °F /  6.5 °C 41.5 °F /  5.3 °C 29.9 in /  1011.1 hPa WSW 4 mph /  6.4 km/h 14 mph /  22.5 km/h 92 % 0 in /  0.0 mm
06:37 43.7 °F /  6.5 °C 41.5 °F /  5.3 °C 29.9 in /  1011.1 hPa WSW 9 mph /  14.5 km/h 14 mph /  22.5 km/h 92 % 0 in /  0.0 mm
06:42 43.7 °F /  6.5 °C 41.5 °F /  5.3 °C 29.9 in /  1011.4 hPa SW 7 mph /  11.3 km/h 12 mph /  19.3 km/h 92 % 0 in /  0.0 mm
06:47 43.9 °F /  6.6 °C 41.7 °F /  5.4 °C 29.9 in /  1011.4 hPa SW 8 mph /  12.9 km/h 12 mph /  19.3 km/h 92 % 0 in /  0.0 mm
06:52 43.9 °F /  6.6 °C 41.7 °F /  5.4 °C 29.9 in /  1011.4 hPa WSW 9 mph /  14.5 km/h 15 mph /  24.1 km/h 92 % 0 in /  0.0 mm
06:57 43.9 °F /  6.6 °C 41.7 °F /  5.4 °C 29.9 in /  1011.4 hPa SW 7 mph /  11.3 km/h 16 mph /  25.7 km/h 92 % 0 in /  0.0 mm
07:02 44.1 °F /  6.7 °C 41.9 °F /  5.5 °C 29.9 in /  1011.7 hPa WSW 10 mph /  16.1 km/h 16 mph /  25.7 km/h 92 % 0 in /  0.0 mm
07:12 44.1 °F /  6.7 °C 41.9 °F /  5.5 °C 29.9 in /  1011.7 hPa SW 8 mph /  12.9 km/h 13 mph /  20.9 km/h 92 % 0 in /  0.0 mm
07:17 44.1 °F /  6.7 °C 41.9 °F /  5.5 °C 29.9 in /  1011.7 hPa WSW 10 mph /  16.1 km/h 12 mph /  19.3 km/h 92 % 0 in /  0.0 mm
07:27 44.2 °F /  6.8 °C 42.1 °F /  5.6 °C 29.9 in /  1011.7 hPa SW 9 mph /  14.5 km/h 13 mph /  20.9 km/h 92 % 0 in /  0.0 mm
07:32 44.2 °F /  6.8 °C 42.1 °F /  5.6 °C 29.9 in /  1011.7 hPa WSW 10 mph /  16.1 km/h 13 mph /  20.9 km/h 92 % 0 in /  0.0 mm
07:37 44.2 °F /  6.8 °C 41.7 °F /  5.4 °C 29.9 in /  1012.1 hPa SW 8 mph /  12.9 km/h 15 mph /  24.1 km/h 91 % 0 in /  0.0 mm
07:42 44.2 °F /  6.8 °C 41.7 °F /  5.4 °C 29.9 in /  1012.1 hPa SW 9 mph /  14.5 km/h 15 mph /  24.1 km/h 91 % 0 in /  0.0 mm
07:47 44.4 °F /  6.9 °C 41.9 °F /  5.5 °C 29.9 in /  1012.1 hPa SW 6 mph /  9.7 km/h 15 mph /  24.1 km/h 91 % 0 in /  0.0 mm
07:52 44.4 °F /  6.9 °C 41.9 °F /  5.5 °C 29.9 in /  1012.4 hPa WSW 4 mph /  6.4 km/h 14 mph /  22.5 km/h 91 % 0 in /  0.0 mm
07:57 44.4 °F /  6.9 °C 41.9 °F /  5.5 °C 29.9 in /  1012.4 hPa SW 3 mph /  4.8 km/h 13 mph /  20.9 km/h 91 % 0 in /  0.0 mm
08:02 44.4 °F /  6.9 °C 41.9 °F /  5.5 °C 29.9 in /  1012.4 hPa WSW 4 mph /  6.4 km/h 13 mph /  20.9 km/h 91 % 0 in /  0.0 mm
08:12 44.4 °F /  6.9 °C 41.9 °F /  5.5 °C 29.9 in /  1012.8 hPa WSW 4 mph /  6.4 km/h 13 mph /  20.9 km/h 91 % 0 in /  0.0 mm
08:17 44.6 °F /  7.0 °C 42.1 °F /  5.6 °C 29.9 in /  1012.8 hPa SW 3 mph /  4.8 km/h 13 mph /  20.9 km/h 91 % 0 in /  0.0 mm
08:22 44.8 °F /  7.1 °C 42.1 °F /  5.6 °C 29.9 in /  1012.8 hPa SW 12 mph /  19.3 km/h 13 mph /  20.9 km/h 90 % 0 in /  0.0 mm
08:27 44.8 °F /  7.1 °C 42.1 °F /  5.6 °C 29.9 in /  1012.8 hPa WSW 5 mph /  8.0 km/h 15 mph /  24.1 km/h 90 % 0 in /  0.0 mm
08:32 44.8 °F /  7.1 °C 42.1 °F /  5.6 °C 29.9 in /  1013.1 hPa SW 8 mph /  12.9 km/h 15 mph /  24.1 km/h 90 % 0 in /  0.0 mm
08:37 44.8 °F /  7.1 °C 42.1 °F /  5.6 °C 29.9 in /  1013.1 hPa SW 6 mph /  9.7 km/h 15 mph /  24.1 km/h 90 % 0 in /  0.0 mm
08:42 45 °F /  7.2 °C 42.3 °F /  5.7 °C 29.9 in /  1013.1 hPa SW 7 mph /  11.3 km/h 15 mph /  24.1 km/h 90 % 0 in /  0.0 mm
08:47 45 °F /  7.2 °C 42.3 °F /  5.7 °C 29.9 in /  1013.1 hPa WSW 4 mph /  6.4 km/h 14 mph /  22.5 km/h 90 % 0 in /  0.0 mm
08:52 45.1 °F /  7.3 °C 42.1 °F /  5.6 °C 29.9 in /  1013.1 hPa SW 14 mph /  22.5 km/h 15 mph /  24.1 km/h 89 % 0 in /  0.0 mm
08:57 45.3 °F /  7.4 °C 42.3 °F /  5.7 °C 29.9 in /  1013.4 hPa SW 3 mph /  4.8 km/h 15 mph /  24.1 km/h 89 % 0 in /  0.0 mm
09:02 45.3 °F /  7.4 °C 41.9 °F /  5.5 °C 29.9 in /  1013.4 hPa WSW 13 mph /  20.9 km/h 15 mph /  24.1 km/h 88 % 0 in /  0.0 mm
09:07 45.5 °F /  7.5 °C 42.1 °F /  5.6 °C 29.9 in /  1013.4 hPa West 5 mph /  8.0 km/h 20 mph /  32.2 km/h 88 % 0 in /  0.0 mm
09:12 45.7 °F /  7.6 °C 42.3 °F /  5.7 °C 29.9 in /  1013.4 hPa SW 4 mph /  6.4 km/h 20 mph /  32.2 km/h 88 % 0 in /  0.0 mm
09:17 46 °F /  7.8 °C 42.4 °F /  5.8 °C 29.9 in /  1013.8 hPa WSW 6 mph /  9.7 km/h 15 mph /  24.1 km/h 87 % 0 in /  0.0 mm
09:22 46.2 °F /  7.9 °C 42.6 °F /  5.9 °C 29.9 in /  1013.8 hPa WSW 4 mph /  6.4 km/h 15 mph /  24.1 km/h 87 % 0 in /  0.0 mm
09:32 46.8 °F /  8.2 °C 42.4 °F /  5.8 °C 29.9 in /  1013.8 hPa WSW 4 mph /  6.4 km/h 12 mph /  19.3 km/h 85 % 0 in /  0.0 mm
09:37 47.1 °F /  8.4 °C 42.8 °F /  6.0 °C 29.9 in /  1013.4 hPa SW 9 mph /  14.5 km/h 12 mph /  19.3 km/h 85 % 0 in /  0.0 mm
09:42 47.8 °F /  8.8 °C 43.2 °F /  6.2 °C 29.9 in /  1013.4 hPa SW 7 mph /  11.3 km/h 14 mph /  22.5 km/h 84 % 0 in /  0.0 mm
09:47 48 °F /  8.9 °C 43.3 °F /  6.3 °C 29.9 in /  1013.4 hPa SW 10 mph /  16.1 km/h 14 mph /  22.5 km/h 84 % 0 in /  0.0 mm
09:57 48.6 °F /  9.2 °C 43.7 °F /  6.5 °C 29.9 in /  1013.8 hPa SSW 9 mph /  14.5 km/h 19 mph /  30.6 km/h 83 % 0 in /  0.0 mm
10:02 48.7 °F /  9.3 °C 43.9 °F /  6.6 °C 29.9 in /  1013.8 hPa SW 2 mph /  3.2 km/h 19 mph /  30.6 km/h 83 % 0 in /  0.0 mm
10:12 49.3 °F /  9.6 °C 43.3 °F /  6.3 °C 29.9 in /  1013.8 hPa SW 4 mph /  6.4 km/h 16 mph /  25.7 km/h 80 % 0 in /  0.0 mm
10:17 49.3 °F /  9.6 °C 42.8 °F /  6.0 °C 29.9 in /  1013.8 hPa West 13 mph /  20.9 km/h 16 mph /  25.7 km/h 78 % 0 in /  0.0 mm
10:22 48.7 °F /  9.3 °C 41.9 °F /  5.5 °C 29.9 in /  1013.8 hPa West 7 mph /  11.3 km/h 15 mph /  24.1 km/h 77 % 0 in /  0.0 mm
10:32 49.3 °F /  9.6 °C 43 °F /  6.1 °C 29.9 in /  1014.1 hPa West 5 mph /  8.0 km/h 21 mph /  33.8 km/h 79 % 0 in /  0.0 mm
10:37 50 °F /  10.0 °C 44.1 °F /  6.7 °C 29.9 in /  1014.1 hPa WSW 9 mph /  14.5 km/h 16 mph /  25.7 km/h 80 % 0 in /  0.0 mm
10:42 50.5 °F /  10.3 °C 43.9 °F /  6.6 °C 29.9 in /  1014.1 hPa SW 10 mph /  16.1 km/h 16 mph /  25.7 km/h 78 % 0 in /  0.0 mm
10:52 50.9 °F /  10.5 °C 43.5 °F /  6.4 °C 29.9 in /  1014.1 hPa SW 7 mph /  11.3 km/h 17 mph /  27.4 km/h 76 % 0 in /  0.0 mm
10:57 50.7 °F /  10.4 °C 42.8 °F /  6.0 °C 29.9 in /  1014.1 hPa WSW 7 mph /  11.3 km/h 18 mph /  29.0 km/h 74 % 0 in /  0.0 mm
11:02 51.1 °F /  10.6 °C 42.4 °F /  5.8 °C 29.9 in /  1014.1 hPa WSW 10 mph /  16.1 km/h 18 mph /  29.0 km/h 72 % 0 in /  0.0 mm
11:07 51.1 °F /  10.6 °C 42.1 °F /  5.6 °C 29.9 in /  1014.1 hPa WNW 6 mph /  9.7 km/h 18 mph /  29.0 km/h 71 % 0 in /  0.0 mm
11:12 51.6 °F /  10.9 °C 43.3 °F /  6.3 °C 29.9 in /  1014.1 hPa WSW 9 mph /  14.5 km/h 18 mph /  29.0 km/h 73 % 0 in /  0.0 mm
11:17 51.6 °F /  10.9 °C 43 °F /  6.1 °C 29.9 in /  1013.8 hPa West 8 mph /  12.9 km/h 20 mph /  32.2 km/h 72 % 0 in /  0.0 mm
11:22 51.6 °F /  10.9 °C 41.7 °F /  5.4 °C 29.9 in /  1014.1 hPa WSW 16 mph /  25.7 km/h 20 mph /  32.2 km/h 69 % 0 in /  0.0 mm
11:27 51.6 °F /  10.9 °C 42.1 °F /  5.6 °C 29.9 in /  1014.1 hPa SW 11 mph /  17.7 km/h 20 mph /  32.2 km/h 70 % 0 in /  0.0 mm
11:32 51.6 °F /  10.9 °C 41.4 °F /  5.2 °C 29.9 in /  1014.1 hPa West 6 mph /  9.7 km/h 20 mph /  32.2 km/h 68 % 0 in /  0.0 mm
11:42 52.2 °F /  11.2 °C 41.2 °F /  5.1 °C 29.9 in /  1014.1 hPa West 11 mph /  17.7 km/h 20 mph /  32.2 km/h 66 % 0 in /  0.0 mm
11:52 52.7 °F /  11.5 °C 40.8 °F /  4.9 °C 29.9 in /  1014.1 hPa SW 19 mph /  30.6 km/h 20 mph /  32.2 km/h 64 % 0 in /  0.0 mm
11:57 52.5 °F /  11.4 °C 41.5 °F /  5.3 °C 29.9 in /  1014.1 hPa West 10 mph /  16.1 km/h 23 mph /  37.0 km/h 66 % 0 in /  0.0 mm
12:02 53.1 °F /  11.7 °C 42.1 °F /  5.6 °C 29.9 in /  1014.1 hPa WSW 17 mph /  27.4 km/h 24 mph /  38.6 km/h 66 % 0 in /  0.0 mm
12:12 53.2 °F /  11.8 °C 43 °F /  6.1 °C 29.9 in /  1014.1 hPa WSW 6 mph /  9.7 km/h 24 mph /  38.6 km/h 68 % 0 in /  0.0 mm
12:17 53.8 °F /  12.1 °C 43.2 °F /  6.2 °C 29.9 in /  1014.1 hPa West 13 mph /  20.9 km/h 24 mph /  38.6 km/h 67 % 0 in /  0.0 mm
12:22 53.2 °F /  11.8 °C 41.7 °F /  5.4 °C 29.9 in /  1014.1 hPa WSW 14 mph /  22.5 km/h 23 mph /  37.0 km/h 65 % 0 in /  0.0 mm
12:27 53.4 °F /  11.9 °C 41.5 °F /  5.3 °C 29.9 in /  1014.1 hPa West 14 mph /  22.5 km/h 20 mph /  32.2 km/h 64 % 0 in /  0.0 mm
12:32 53.6 °F /  12.0 °C 41.7 °F /  5.4 °C 29.9 in /  1014.1 hPa WSW 18 mph /  29.0 km/h 20 mph /  32.2 km/h 64 % 0 in /  0.0 mm
12:37 53.4 °F /  11.9 °C 41.5 °F /  5.3 °C 29.9 in /  1014.1 hPa West 9 mph /  14.5 km/h 20 mph /  32.2 km/h 64 % 0 in /  0.0 mm
12:42 54.1 °F /  12.3 °C 41.9 °F /  5.5 °C 29.9 in /  1014.1 hPa WNW 11 mph /  17.7 km/h 19 mph /  30.6 km/h 63 % 0 in /  0.0 mm
12:47 53.8 °F /  12.1 °C 41 °F /  5.0 °C 29.9 in /  1014.1 hPa WSW 7 mph /  11.3 km/h 22 mph /  35.4 km/h 62 % 0 in /  0.0 mm
12:52 54 °F /  12.2 °C 42.4 °F /  5.8 °C 29.9 in /  1014.1 hPa West 12 mph /  19.3 km/h 22 mph /  35.4 km/h 65 % 0 in /  0.0 mm
12:57 54.1 °F /  12.3 °C 42.3 °F /  5.7 °C 29.9 in /  1014.1 hPa West 9 mph /  14.5 km/h 22 mph /  35.4 km/h 64 % 0 in /  0.0 mm
13:02 53.8 °F /  12.1 °C 41 °F /  5.0 °C 29.9 in /  1014.1 hPa SW 5 mph /  8.0 km/h 17 mph /  27.4 km/h 62 % 0 in /  0.0 mm
13:12 53.8 °F /  12.1 °C 42.6 °F /  5.9 °C 29.9 in /  1014.1 hPa West 5 mph /  8.0 km/h 19 mph /  30.6 km/h 66 % 0 in /  0.0 mm
13:17 54 °F /  12.2 °C 42.1 °F /  5.6 °C 30 in /  1014.4 hPa West 9 mph /  14.5 km/h 19 mph /  30.6 km/h 64 % 0 in /  0.0 mm
13:22 54.7 °F /  12.6 °C 44.2 °F /  6.8 °C 30 in /  1014.4 hPa WSW 9 mph /  14.5 km/h 17 mph /  27.4 km/h 68 % 0 in /  0.0 mm
13:32 54 °F /  12.2 °C 41.7 °F /  5.4 °C 30 in /  1014.4 hPa West 9 mph /  14.5 km/h 18 mph /  29.0 km/h 63 % 0 in /  0.0 mm
13:37 53.8 °F /  12.1 °C 41.5 °F /  5.3 °C 30 in /  1014.4 hPa West 14 mph /  22.5 km/h 18 mph /  29.0 km/h 63 % 0 in /  0.0 mm
13:42 54 °F /  12.2 °C 42.1 °F /  5.6 °C 30 in /  1014.4 hPa WSW 8 mph /  12.9 km/h 17 mph /  27.4 km/h 64 % 0 in /  0.0 mm
13:52 54.7 °F /  12.6 °C 39.7 °F /  4.3 °C 30 in /  1014.4 hPa West 9 mph /  14.5 km/h 19 mph /  30.6 km/h 57 % 0 in /  0.0 mm
13:57 55.2 °F /  12.9 °C 41.5 °F /  5.3 °C 30 in /  1014.4 hPa WSW 12 mph /  19.3 km/h 19 mph /  30.6 km/h 60 % 0 in /  0.0 mm
14:07 54 °F /  12.2 °C 42.4 °F /  5.8 °C 30 in /  1014.8 hPa WSW 13 mph /  20.9 km/h 20 mph /  32.2 km/h 65 % 0 in /  0.0 mm
14:17 51.1 °F /  10.6 °C 42.8 °F /  6.0 °C 30 in /  1014.4 hPa West 7 mph /  11.3 km/h 24 mph /  38.6 km/h 73 % 0.01 in /  0.3 mm
14:27 52 °F /  11.1 °C 43.5 °F /  6.4 °C 30 in /  1014.8 hPa WSW 8 mph /  12.9 km/h 17 mph /  27.4 km/h 73 % 0.01 in /  0.3 mm
14:32 52.5 °F /  11.4 °C 43.3 °F /  6.3 °C 30 in /  1014.8 hPa West 12 mph /  19.3 km/h 19 mph /  30.6 km/h 71 % 0.02 in /  0.5 mm
14:42 52.7 °F /  11.5 °C 42.1 °F /  5.6 °C 30 in /  1014.8 hPa West 9 mph /  14.5 km/h 25 mph /  40.2 km/h 67 % 0.02 in /  0.5 mm
14:47 53.1 °F /  11.7 °C 41.5 °F /  5.3 °C 30 in /  1014.8 hPa SW 8 mph /  12.9 km/h 25 mph /  40.2 km/h 65 % 0.02 in /  0.5 mm
14:52 53.6 °F /  12.0 °C 40.8 °F /  4.9 °C 30 in /  1014.8 hPa WSW 8 mph /  12.9 km/h 25 mph /  40.2 km/h 62 % 0.02 in /  0.5 mm
14:57 53.8 °F /  12.1 °C 41.5 °F /  5.3 °C 30 in /  1014.8 hPa WSW 5 mph /  8.0 km/h 19 mph /  30.6 km/h 63 % 0.02 in /  0.5 mm
15:02 54.1 °F /  12.3 °C 41 °F /  5.0 °C 30 in /  1014.8 hPa SW 10 mph /  16.1 km/h 19 mph /  30.6 km/h 61 % 0.02 in /  0.5 mm
15:12 54.7 °F /  12.6 °C 40.6 °F /  4.8 °C 30 in /  1014.8 hPa SSW 10 mph /  16.1 km/h 18 mph /  29.0 km/h 59 % 0.01 in /  0.3 mm
15:17 55 °F /  12.8 °C 41.4 °F /  5.2 °C 30 in /  1015.1 hPa WSW 15 mph /  24.1 km/h 18 mph /  29.0 km/h 60 % 0.01 in /  0.3 mm
15:22 54.9 °F /  12.7 °C 42.1 °F /  5.6 °C 30 in /  1015.1 hPa SW 17 mph /  27.4 km/h 20 mph /  32.2 km/h 62 % 0.01 in /  0.3 mm
15:32 54 °F /  12.2 °C 40.8 °F /  4.9 °C 30 in /  1015.1 hPa SSW 6 mph /  9.7 km/h 21 mph /  33.8 km/h 61 % 0 in /  0.0 mm
15:42 55 °F /  12.8 °C 41 °F /  5.0 °C 30 in /  1015.1 hPa WSW 14 mph /  22.5 km/h 18 mph /  29.0 km/h 59 % 0 in /  0.0 mm
15:52 54.5 °F /  12.5 °C 43 °F /  6.1 °C 30 in /  1015.1 hPa WNW 14 mph /  22.5 km/h 21 mph /  33.8 km/h 65 % 0 in /  0.0 mm
15:57 52.9 °F /  11.6 °C 41.9 °F /  5.5 °C 30 in /  1015.1 hPa West 8 mph /  12.9 km/h 21 mph /  33.8 km/h 66 % 0 in /  0.0 mm
16:02 52.2 °F /  11.2 °C 42.3 °F /  5.7 °C 30 in /  1015.5 hPa West 11 mph /  17.7 km/h 21 mph /  33.8 km/h 69 % 0 in /  0.0 mm
16:12 52 °F /  11.1 °C 41.4 °F /  5.2 °C 30 in /  1015.5 hPa West 6 mph /  9.7 km/h 20 mph /  32.2 km/h 67 % 0 in /  0.0 mm
16:17 52.3 °F /  11.3 °C 41.4 °F /  5.2 °C 30 in /  1015.5 hPa West 6 mph /  9.7 km/h 19 mph /  30.6 km/h 66 % 0 in /  0.0 mm
16:22 52.9 °F /  11.6 °C 41.4 °F /  5.2 °C 30 in /  1015.5 hPa West 10 mph /  16.1 km/h 17 mph /  27.4 km/h 65 % 0 in /  0.0 mm
16:32 53.8 °F /  12.1 °C 41.5 °F /  5.3 °C 30 in /  1015.5 hPa SW 3 mph /  4.8 km/h 16 mph /  25.7 km/h 63 % 0 in /  0.0 mm
16:37 54.7 °F /  12.6 °C 40.6 °F /  4.8 °C 30 in /  1015.5 hPa West 5 mph /  8.0 km/h 16 mph /  25.7 km/h 59 % 0 in /  0.0 mm
16:42 54.9 °F /  12.7 °C 39.9 °F /  4.4 °C 30 in /  1015.5 hPa West 9 mph /  14.5 km/h 20 mph /  32.2 km/h 57 % 0 in /  0.0 mm
16:47 54.9 °F /  12.7 °C 39.9 °F /  4.4 °C 30 in /  1015.5 hPa SW 8 mph /  12.9 km/h 20 mph /  32.2 km/h 57 % 0 in /  0.0 mm
16:57 55.2 °F /  12.9 °C 41.2 °F /  5.1 °C 30 in /  1015.5 hPa SW 19 mph /  30.6 km/h 19 mph /  30.6 km/h 59 % 0 in /  0.0 mm
17:02 54.9 °F /  12.7 °C 41.2 °F /  5.1 °C 30 in /  1015.5 hPa SW 9 mph /  14.5 km/h 19 mph /  30.6 km/h 60 % 0 in /  0.0 mm
17:12 54 °F /  12.2 °C 41.2 °F /  5.1 °C 30 in /  1015.5 hPa WSW 5 mph /  8.0 km/h 19 mph /  30.6 km/h 62 % 0 in /  0.0 mm
17:17 54.1 °F /  12.3 °C 41 °F /  5.0 °C 30 in /  1015.8 hPa SW 6 mph /  9.7 km/h 19 mph /  30.6 km/h 61 % 0 in /  0.0 mm
17:22 54.3 °F /  12.4 °C 39.9 °F /  4.4 °C 30 in /  1015.5 hPa WSW 9 mph /  14.5 km/h 19 mph /  30.6 km/h 58 % 0 in /  0.0 mm
17:27 54.5 °F /  12.5 °C 38.7 °F /  3.7 °C 30 in /  1015.8 hPa WSW 10 mph /  16.1 km/h 17 mph /  27.4 km/h 55 % 0 in /  0.0 mm
17:32 54.7 °F /  12.6 °C 40.3 °F /  4.6 °C 30 in /  1015.8 hPa WSW 9 mph /  14.5 km/h 17 mph /  27.4 km/h 58 % 0 in /  0.0 mm
17:37 54.7 °F /  12.6 °C 39.4 °F /  4.1 °C 30 in /  1015.8 hPa WNW 10 mph /  16.1 km/h 17 mph /  27.4 km/h 56 % 0 in /  0.0 mm
17:42 54.9 °F /  12.7 °C 39.4 °F /  4.1 °C 30 in /  1015.8 hPa West 8 mph /  12.9 km/h 13 mph /  20.9 km/h 56 % 0 in /  0.0 mm
17:47 55 °F /  12.8 °C 39.6 °F /  4.2 °C 30 in /  1015.8 hPa WNW 3 mph /  4.8 km/h 14 mph /  22.5 km/h 56 % 0 in /  0.0 mm
17:52 55 °F /  12.8 °C 39.6 °F /  4.2 °C 30 in /  1015.8 hPa West 5 mph /  8.0 km/h 14 mph /  22.5 km/h 56 % 0 in /  0.0 mm
18:02 54.7 °F /  12.6 °C 38.8 °F /  3.8 °C 30 in /  1015.8 hPa SW 8 mph /  12.9 km/h 10 mph /  16.1 km/h 55 % 0 in /  0.0 mm
18:12 54.9 °F /  12.7 °C 39 °F /  3.9 °C 30 in /  1015.8 hPa West 8 mph /  12.9 km/h 13 mph /  20.9 km/h 55 % 0 in /  0.0 mm
18:17 54.9 °F /  12.7 °C 39.4 °F /  4.1 °C 30 in /  1015.8 hPa SW 7 mph /  11.3 km/h 13 mph /  20.9 km/h 56 % 0 in /  0.0 mm
18:22 55 °F /  12.8 °C 40.5 °F /  4.7 °C 30 in /  1015.8 hPa SW 4 mph /  6.4 km/h 13 mph /  20.9 km/h 58 % 0 in /  0.0 mm
18:27 55 °F /  12.8 °C 41.9 °F /  5.5 °C 30 in /  1015.8 hPa WSW 6 mph /  9.7 km/h 13 mph /  20.9 km/h 61 % 0 in /  0.0 mm
18:32 55 °F /  12.8 °C 41.9 °F /  5.5 °C 30 in /  1015.8 hPa WSW 5 mph /  8.0 km/h 15 mph /  24.1 km/h 61 % 0 in /  0.0 mm
18:37 55.2 °F /  12.9 °C 38.8 °F /  3.8 °C 30 in /  1015.8 hPa WSW 9 mph /  14.5 km/h 15 mph /  24.1 km/h 54 % 0 in /  0.0 mm
18:42 55.2 °F /  12.9 °C 38.3 °F /  3.5 °C 30 in /  1015.8 hPa SW 9 mph /  14.5 km/h 16 mph /  25.7 km/h 53 % 0 in /  0.0 mm
18:47 55.2 °F /  12.9 °C 38.8 °F /  3.8 °C 30 in /  1016.1 hPa WSW 11 mph /  17.7 km/h 19 mph /  30.6 km/h 54 % 0 in /  0.0 mm
18:52 55 °F /  12.8 °C 38.7 °F /  3.7 °C 30 in /  1016.1 hPa SW 11 mph /  17.7 km/h 19 mph /  30.6 km/h 54 % 0 in /  0.0 mm
19:02 54.7 °F /  12.6 °C 37.9 °F /  3.3 °C 30 in /  1015.8 hPa WSW 10 mph /  16.1 km/h 16 mph /  25.7 km/h 53 % 0 in /  0.0 mm
19:12 54.5 °F /  12.5 °C 39.6 °F /  4.2 °C 30 in /  1015.8 hPa SW 10 mph /  16.1 km/h 15 mph /  24.1 km/h 57 % 0 in /  0.0 mm
19:17 54.3 °F /  12.4 °C 39.9 °F /  4.4 °C 30 in /  1015.8 hPa SW 7 mph /  11.3 km/h 14 mph /  22.5 km/h 58 % 0 in /  0.0 mm
19:22 54.1 °F /  12.3 °C 40.1 °F /  4.5 °C 30 in /  1016.1 hPa WSW 6 mph /  9.7 km/h 14 mph /  22.5 km/h 59 % 0 in /  0.0 mm
19:32 53.6 °F /  12.0 °C 40.5 °F /  4.7 °C 30 in /  1016.1 hPa SW 3 mph /  4.8 km/h 12 mph /  19.3 km/h 61 % 0 in /  0.0 mm
19:42 53.8 °F /  12.1 °C 41 °F /  5.0 °C 30 in /  1016.1 hPa WSW 7 mph /  11.3 km/h 8 mph /  12.9 km/h 62 % 0 in /  0.0 mm
19:47 53.4 °F /  11.9 °C 41.2 °F /  5.1 °C 30 in /  1016.1 hPa SW 5 mph /  8.0 km/h 8 mph /  12.9 km/h 63 % 0 in /  0.0 mm
19:57 52.5 °F /  11.4 °C 41.2 °F /  5.1 °C 30 in /  1016.1 hPa SSW 3 mph /  4.8 km/h 9 mph /  14.5 km/h 65 % 0 in /  0.0 mm
20:02 52 °F /  11.1 °C 41.4 °F /  5.2 °C 30 in /  1016.1 hPa South 2 mph /  3.2 km/h 9 mph /  14.5 km/h 67 % 0 in /  0.0 mm
20:07 51.6 °F /  10.9 °C 41 °F /  5.0 °C 30 in /  1016.1 hPa SW 6 mph /  9.7 km/h 9 mph /  14.5 km/h 67 % 0 in /  0.0 mm
20:12 51.4 °F /  10.8 °C 41.5 °F /  5.3 °C 30 in /  1016.1 hPa SW 2 mph /  3.2 km/h 9 mph /  14.5 km/h 69 % 0 in /  0.0 mm
20:17 51.1 °F /  10.6 °C 41.2 °F /  5.1 °C 30 in /  1016.1 hPa SW 3 mph /  4.8 km/h 9 mph /  14.5 km/h 69 % 0 in /  0.0 mm
20:22 50.5 °F /  10.3 °C 41.5 °F /  5.3 °C 30 in /  1016.1 hPa SSW 3 mph /  4.8 km/h 8 mph /  12.9 km/h 71 % 0 in /  0.0 mm
20:27 50.2 °F /  10.1 °C 41.5 °F /  5.3 °C 30 in /  1016.5 hPa South 1 mph /  1.6 km/h 6 mph /  9.7 km/h 72 % 0 in /  0.0 mm
20:32 49.8 °F /  9.9 °C 41.5 °F /  5.3 °C 30 in /  1016.1 hPa SSW 2 mph /  3.2 km/h 6 mph /  9.7 km/h 73 % 0 in /  0.0 mm
20:37 49.6 °F /  9.8 °C 41.7 °F /  5.4 °C 30 in /  1016.5 hPa SW 2 mph /  3.2 km/h 5 mph /  8.0 km/h 74 % 0 in /  0.0 mm
20:42 49.5 °F /  9.7 °C 41.5 °F /  5.3 °C 30 in /  1016.1 hPa SSW 2 mph /  3.2 km/h 5 mph /  8.0 km/h 74 % 0 in /  0.0 mm
20:47 49.3 °F /  9.6 °C 41.7 °F /  5.4 °C 30 in /  1016.1 hPa SW 3 mph /  4.8 km/h 5 mph /  8.0 km/h 75 % 0 in /  0.0 mm
20:52 48.9 °F /  9.4 °C 41.7 °F /  5.4 °C 30 in /  1016.1 hPa SSW 2 mph /  3.2 km/h 6 mph /  9.7 km/h 76 % 0 in /  0.0 mm
20:57 48.7 °F /  9.3 °C 41.9 °F /  5.5 °C 30 in /  1016.1 hPa SSW 1 mph /  1.6 km/h 6 mph /  9.7 km/h 77 % 0 in /  0.0 mm
21:02 48.6 °F /  9.2 °C 42.1 °F /  5.6 °C 30 in /  1016.1 hPa Calm   5 mph /  8.0 km/h 78 % 0 in /  0.0 mm
21:12 48.4 °F /  9.1 °C 41.9 °F /  5.5 °C 30 in /  1016.1 hPa SW 1 mph /  1.6 km/h 3 mph /  4.8 km/h 78 % 0 in /  0.0 mm
21:17 48.2 °F /  9.0 °C 42.1 °F /  5.6 °C 30 in /  1016.5 hPa Calm   2 mph /  3.2 km/h 79 % 0 in /  0.0 mm
21:22 48 °F /  8.9 °C 41.9 °F /  5.5 °C 30 in /  1016.5 hPa Calm   2 mph /  3.2 km/h 79 % 0 in /  0.0 mm
21:32 47.8 °F /  8.8 °C 41.7 °F /  5.4 °C 30 in /  1016.5 hPa SSE 1 mph /  1.6 km/h 2 mph /  3.2 km/h 79 % 0 in /  0.0 mm
21:37 47.7 °F /  8.7 °C 41.5 °F /  5.3 °C 30 in /  1016.5 hPa Calm   2 mph /  3.2 km/h 79 % 0 in /  0.0 mm
21:42 47.5 °F /  8.6 °C 41.5 °F /  5.3 °C 30 in /  1016.5 hPa South 1 mph /  1.6 km/h 2 mph /  3.2 km/h 80 % 0 in /  0.0 mm
21:47 47.1 °F /  8.4 °C 41.4 °F /  5.2 °C 30 in /  1016.8 hPa SSW 1 mph /  1.6 km/h 2 mph /  3.2 km/h 80 % 0 in /  0.0 mm
21:52 46.9 °F /  8.3 °C 41.7 °F /  5.4 °C 30 in /  1016.8 hPa Calm   2 mph /  3.2 km/h 82 % 0 in /  0.0 mm
21:57 46.6 °F /  8.1 °C 41.7 °F /  5.4 °C 30 in /  1016.8 hPa Calm   2 mph /  3.2 km/h 83 % 0 in /  0.0 mm
22:02 46.4 °F /  8.0 °C 41.5 °F /  5.3 °C 30 in /  1016.8 hPa SW 1 mph /  1.6 km/h 2 mph /  3.2 km/h 83 % 0 in /  0.0 mm
22:12 46 °F /  7.8 °C 40.8 °F /  4.9 °C 30 in /  1016.8 hPa South 1 mph /  1.6 km/h 2 mph /  3.2 km/h 82 % 0 in /  0.0 mm
22:17 45.9 °F /  7.7 °C 41 °F /  5.0 °C 30 in /  1016.5 hPa Calm   2 mph /  3.2 km/h 83 % 0 in /  0.0 mm
22:22 45.7 °F /  7.6 °C 40.8 °F /  4.9 °C 30 in /  1016.8 hPa Calm   2 mph /  3.2 km/h 83 % 0 in /  0.0 mm
22:27 45.3 °F /  7.4 °C 40.5 °F /  4.7 °C 30 in /  1016.8 hPa Calm   2 mph /  3.2 km/h 83 % 0 in /  0.0 mm
22:32 45.1 °F /  7.3 °C 40.6 °F /  4.8 °C 30 in /  1016.5 hPa SSW 1 mph /  1.6 km/h 2 mph /  3.2 km/h 84 % 0 in /  0.0 mm
22:42 45.3 °F /  7.4 °C 41 °F /  5.0 °C 30 in /  1016.5 hPa South 2 mph /  3.2 km/h 5 mph /  8.0 km/h 85 % 0 in /  0.0 mm
22:47 45.3 °F /  7.4 °C 41.4 °F /  5.2 °C 30 in /  1016.5 hPa SSW 2 mph /  3.2 km/h 5 mph /  8.0 km/h 86 % 0 in /  0.0 mm
22:57 45.3 °F /  7.4 °C 41 °F /  5.0 °C 30 in /  1016.5 hPa SSW 1 mph /  1.6 km/h 4 mph /  6.4 km/h 85 % 0 in /  0.0 mm
23:02 45.3 °F /  7.4 °C 41.4 °F /  5.2 °C 30 in /  1016.5 hPa SSW 1 mph /  1.6 km/h 4 mph /  6.4 km/h 86 % 0 in /  0.0 mm
23:07 45.3 °F /  7.4 °C 41.4 °F /  5.2 °C 30 in /  1016.8 hPa SSW 2 mph /  3.2 km/h 4 mph /  6.4 km/h 86 % 0 in /  0.0 mm
23:12 45.5 °F /  7.5 °C 41.9 °F /  5.5 °C 30 in /  1016.8 hPa SW 3 mph /  4.8 km/h 6 mph /  9.7 km/h 87 % 0 in /  0.0 mm
23:17 45.7 °F /  7.6 °C 42.1 °F /  5.6 °C 30 in /  1016.8 hPa SW 4 mph /  6.4 km/h 6 mph /  9.7 km/h 87 % 0 in /  0.0 mm
23:22 45.9 °F /  7.7 °C 41.9 °F /  5.5 °C 30 in /  1016.8 hPa SW 3 mph /  4.8 km/h 7 mph /  11.3 km/h 86 % 0 in /  0.0 mm
23:32 46.2 °F /  7.9 °C 42.3 °F /  5.7 °C 30 in /  1016.8 hPa SW 2 mph /  3.2 km/h 5 mph /  8.0 km/h 86 % 0 in /  0.0 mm
23:42 46.6 °F /  8.1 °C 42.3 °F /  5.7 °C 30 in /  1016.5 hPa SSW 2 mph /  3.2 km/h 5 mph /  8.0 km/h 85 % 0 in /  0.0 mm
23:47 46.6 °F /  8.1 °C 42.3 °F /  5.7 °C 30 in /  1016.5 hPa SW 4 mph /  6.4 km/h 5 mph /  8.0 km/h 85 % 0 in /  0.0 mm
23:52 46.6 °F /  8.1 °C 42.3 °F /  5.7 °C 30 in /  1016.5 hPa SW 1 mph /  1.6 km/h 5 mph /  8.0 km/h 85 % 0 in /  0.0 mm
Meteo18
Compliments of Weather Underground - 4 mb

Script developed by  Jim McMurry - jmcmurry@mwt.net Adapted for the template by  Wim van der Kuil - Leuven-Template.eu

You find our weather info also at:

European Weather Network

Weather Underground

Equipment we use:

Weather-station
Davis Vue

Weather-program
Meteohub

Weather-server
Raspberry PI 2 B+

Provider
1 and 1

Davis Vue

Meteohub

Raspberry PI 2 B+

1 and 1